createdAt,value
2023-01-10T00:00:17.404Z,15
2023-01-10T00:05:17.373Z,13
2023-01-10T00:10:17.317Z,13
2023-01-10T00:15:17.484Z,14
2023-01-10T00:20:17.349Z,15
2023-01-10T00:25:17.350Z,17
2023-01-10T00:30:17.590Z,16
2023-01-10T00:35:17.410Z,15
2023-01-10T00:40:17.305Z,16
2023-01-10T00:45:17.691Z,16
2023-01-10T00:50:15.412Z,16
2023-01-10T00:55:15.483Z,16
2023-01-10T01:00:15.401Z,16
2023-01-10T01:05:15.391Z,14
2023-01-10T01:10:15.475Z,12
2023-01-10T01:15:15.454Z,16
2023-01-10T01:20:15.472Z,13
2023-01-10T01:25:15.695Z,15
2023-01-10T01:30:15.444Z,13
2023-01-10T01:35:15.568Z,13
2023-01-10T01:40:15.529Z,12
2023-01-10T01:45:15.578Z,15
2023-01-10T01:50:15.584Z,14
2023-01-10T01:55:15.493Z,12
2023-01-10T02:00:15.770Z,12
2023-01-10T02:05:15.518Z,9
2023-01-10T02:10:15.549Z,8
2023-01-10T02:15:15.547Z,7
2023-01-10T02:20:15.875Z,12
2023-01-10T02:25:15.631Z,9
2023-01-10T02:30:15.579Z,11
2023-01-10T02:35:15.617Z,12
2023-01-10T02:40:15.725Z,12
2023-01-10T02:45:15.866Z,10
2023-01-10T02:50:15.659Z,12
2023-01-10T02:55:15.643Z,11
2023-01-10T03:00:17.055Z,11
2023-01-10T03:05:16.770Z,12
2023-01-10T03:10:16.827Z,11
2023-01-10T03:15:16.776Z,10
2023-01-10T03:20:16.834Z,9
2023-01-10T03:25:16.811Z,8
2023-01-10T03:30:16.772Z,7
2023-01-10T03:35:16.777Z,7
2023-01-10T03:40:16.958Z,7
2023-01-10T03:45:16.811Z,7
2023-01-10T03:50:16.854Z,7
2023-01-10T03:55:16.743Z,7
2023-01-10T04:00:16.770Z,5
2023-01-10T04:05:16.828Z,7
2023-01-10T04:10:17.030Z,7
2023-01-10T04:15:16.913Z,7
2023-01-10T04:20:16.902Z,4
2023-01-10T04:25:17.197Z,4
2023-01-10T04:30:17.097Z,3
2023-01-10T04:35:16.939Z,5
2023-01-10T04:40:16.879Z,4
2023-01-10T04:45:16.949Z,4
2023-01-10T04:50:17.000Z,5
2023-01-10T04:55:17.180Z,5
2023-01-10T05:00:16.009Z,6
2023-01-10T05:05:16.050Z,4
2023-01-10T05:10:15.991Z,6
2023-01-10T05:15:16.019Z,7
2023-01-10T05:20:16.024Z,8
2023-01-10T05:25:15.939Z,8
2023-01-10T05:30:16.001Z,7
2023-01-10T05:35:16.159Z,6
2023-01-10T05:40:16.071Z,8
2023-01-10T05:45:16.254Z,6
2023-01-10T05:50:17.448Z,6
2023-01-10T05:55:15.990Z,4
2023-01-10T06:00:16.074Z,6
2023-01-10T06:05:16.163Z,6
2023-01-10T06:10:16.306Z,9
2023-01-10T06:15:16.216Z,6
2023-01-10T06:20:16.176Z,8
2023-01-10T06:25:16.178Z,4
2023-01-10T06:30:16.120Z,4
2023-01-10T06:35:16.141Z,6
2023-01-10T06:40:16.234Z,4
2023-01-10T06:45:16.190Z,4
2023-01-10T06:50:16.238Z,10
2023-01-10T06:55:16.326Z,10
2023-01-10T07:00:17.415Z,7
2023-01-10T07:05:17.233Z,11
2023-01-10T07:10:17.164Z,13
2023-01-10T07:15:17.311Z,12
2023-01-10T07:20:17.278Z,11
2023-01-10T07:25:17.269Z,15
2023-01-10T07:30:17.210Z,17
2023-01-10T07:35:17.395Z,14
2023-01-10T07:40:17.498Z,15
2023-01-10T07:45:17.316Z,12
2023-01-10T07:50:18.076Z,12
2023-01-10T07:55:17.497Z,11
2023-01-10T08:00:18.891Z,10
2023-01-10T08:05:17.479Z,9
2023-01-10T08:10:17.418Z,8
2023-01-10T08:15:17.315Z,9
2023-01-10T08:20:15.453Z,8
2023-01-10T08:25:15.504Z,12
2023-01-10T08:30:15.415Z,10
2023-01-10T08:35:15.417Z,9
2023-01-10T08:40:15.417Z,10
2023-01-10T08:45:15.484Z,10
2023-01-10T08:50:15.403Z,9
2023-01-10T08:55:15.520Z,10
2023-01-10T09:00:15.438Z,11
2023-01-10T09:05:27.017Z,8
2023-01-10T09:10:15.522Z,8
2023-01-10T09:15:15.548Z,12
2023-01-10T09:20:15.602Z,10
2023-01-10T09:25:15.647Z,11
2023-01-10T09:30:15.597Z,9
2023-01-10T09:35:15.540Z,9
2023-01-10T09:40:15.614Z,8
2023-01-10T09:45:15.650Z,9
2023-01-10T09:50:15.728Z,10
2023-01-10T09:55:15.809Z,10
2023-01-10T10:00:15.661Z,9
2023-01-10T10:05:15.744Z,10
2023-01-10T10:10:15.609Z,7
2023-01-10T10:15:15.618Z,8
2023-01-10T10:20:15.660Z,8
2023-01-10T10:25:15.706Z,9
2023-01-10T10:30:15.883Z,8
2023-01-10T10:35:15.685Z,8
2023-01-10T10:40:15.831Z,9
2023-01-10T10:45:15.696Z,9
2023-01-10T10:50:16.079Z,8
2023-01-10T10:55:15.842Z,9
2023-01-10T11:00:15.734Z,10
2023-01-10T11:05:15.803Z,8
2023-01-10T11:10:15.922Z,8
2023-01-10T11:15:15.820Z,10
2023-01-10T11:20:15.946Z,9
2023-01-10T11:25:15.730Z,8
2023-01-10T11:30:16.770Z,11
2023-01-10T11:35:15.936Z,10
2023-01-10T11:40:16.003Z,12
2023-01-10T11:45:15.925Z,9
2023-01-10T11:50:15.901Z,9
2023-01-10T11:55:15.824Z,10
2023-01-10T12:00:16.063Z,7
2023-01-10T12:05:16.010Z,7
2023-01-10T12:10:15.861Z,11
2023-01-10T12:15:16.057Z,9
2023-01-10T12:20:15.936Z,9
2023-01-10T12:25:15.871Z,7
2023-01-10T12:30:16.088Z,9
2023-01-10T12:35:16.159Z,10
2023-01-10T12:40:16.131Z,10
2023-01-10T12:45:16.258Z,6
2023-01-10T12:50:15.991Z,9
2023-01-10T12:55:16.164Z,11
2023-01-10T13:00:16.194Z,10
2023-01-10T13:05:16.027Z,9
2023-01-10T13:10:16.143Z,10
2023-01-10T13:15:16.076Z,11
2023-01-10T13:20:16.228Z,9
2023-01-10T13:25:16.283Z,10
2023-01-10T13:30:16.062Z,10
2023-01-10T13:35:16.108Z,11
2023-01-10T13:40:16.191Z,12
2023-01-10T13:45:16.097Z,14
2023-01-10T13:50:16.107Z,16
2023-01-10T13:55:16.063Z,19
2023-01-10T14:00:16.201Z,23
2023-01-10T14:05:16.157Z,18
2023-01-10T14:10:16.131Z,18
2023-01-10T14:15:16.141Z,14
2023-01-10T14:20:16.244Z,15
2023-01-10T14:25:16.279Z,16
2023-01-10T14:30:16.187Z,16
2023-01-10T14:35:16.178Z,20
2023-01-10T14:40:16.305Z,23
2023-01-10T14:45:16.303Z,22
2023-01-10T14:50:16.305Z,23
2023-01-10T14:55:16.418Z,24
2023-01-10T15:00:17.930Z,21
2023-01-10T15:05:16.311Z,18
2023-01-10T15:10:16.226Z,21
2023-01-10T15:15:16.333Z,22
2023-01-10T15:20:16.497Z,18
2023-01-10T15:25:16.301Z,17
2023-01-10T15:30:16.406Z,19
2023-01-10T15:35:20.670Z,18
2023-01-10T15:40:16.515Z,17
2023-01-10T15:45:16.353Z,16
2023-01-10T15:50:16.737Z,19
2023-01-10T15:55:16.456Z,21
2023-01-10T16:00:16.415Z,21
2023-01-10T16:05:16.409Z,20
2023-01-10T16:10:16.328Z,18
2023-01-10T16:15:16.489Z,21
2023-01-10T16:20:16.444Z,20
2023-01-10T16:25:16.691Z,19
2023-01-10T16:30:16.720Z,22
2023-01-10T16:35:18.487Z,24
2023-01-10T16:40:16.548Z,20
2023-01-10T16:45:16.567Z,20
2023-01-10T16:50:16.605Z,16
2023-01-10T16:55:17.859Z,17
2023-01-10T17:00:16.530Z,15
2023-01-10T17:05:16.862Z,17
2023-01-10T17:10:16.734Z,21
2023-01-10T17:15:16.633Z,19
2023-01-10T17:20:16.691Z,17
2023-01-10T17:25:16.669Z,13
2023-01-10T17:30:16.940Z,16
2023-01-10T17:35:16.597Z,23
2023-01-10T17:40:16.624Z,22
2023-01-10T17:45:16.651Z,15
2023-01-10T17:50:16.695Z,19
2023-01-10T17:55:16.785Z,17
2023-01-10T18:00:16.929Z,16
2023-01-10T18:05:16.888Z,17
2023-01-10T18:10:16.980Z,17
2023-01-10T18:15:16.734Z,19
2023-01-10T18:20:16.760Z,18
2023-01-10T18:25:16.775Z,20
2023-01-10T18:30:16.686Z,17
2023-01-10T18:35:16.851Z,18
2023-01-10T18:40:17.103Z,21
2023-01-10T18:45:16.763Z,24
2023-01-10T18:50:16.859Z,20
2023-01-10T18:55:16.856Z,19
2023-01-10T19:00:16.869Z,19
2023-01-10T19:05:16.831Z,15
2023-01-10T19:10:16.769Z,16
2023-01-10T19:15:16.852Z,20
2023-01-10T19:20:17.024Z,20
2023-01-10T19:25:16.850Z,16
2023-01-10T19:30:16.963Z,18
2023-01-10T19:35:16.974Z,17
2023-01-10T19:40:16.914Z,19
2023-01-10T19:45:16.935Z,15
2023-01-10T19:50:17.027Z,20
2023-01-10T19:55:16.808Z,19
2023-01-10T20:00:17.211Z,15
2023-01-10T20:05:17.010Z,13
2023-01-10T20:10:16.988Z,15
2023-01-10T20:15:16.953Z,18
2023-01-10T20:20:17.117Z,16
2023-01-10T20:25:16.921Z,17
2023-01-10T20:30:17.065Z,14
2023-01-10T20:35:17.021Z,11
2023-01-10T20:40:17.083Z,12
2023-01-10T20:45:17.359Z,12
2023-01-10T20:50:17.154Z,13
2023-01-10T20:55:17.080Z,12
2023-01-10T21:00:17.076Z,16
2023-01-10T21:05:17.140Z,14
2023-01-10T21:10:17.278Z,16
2023-01-10T21:15:17.222Z,14
2023-01-10T21:20:17.258Z,14
2023-01-10T21:25:17.186Z,14
2023-01-10T21:30:17.147Z,13
2023-01-10T21:35:17.198Z,13
2023-01-10T21:40:17.269Z,14
2023-01-10T21:45:17.124Z,13
2023-01-10T21:50:17.384Z,11
2023-01-10T21:55:17.161Z,13
2023-01-10T22:00:17.185Z,16
2023-01-10T22:05:17.279Z,15
2023-01-10T22:10:17.478Z,15
2023-01-10T22:15:17.324Z,15
2023-01-10T22:20:15.507Z,16
2023-01-10T22:25:17.521Z,15
2023-01-10T22:30:17.441Z,14
2023-01-10T22:35:17.614Z,17
2023-01-10T22:40:20.453Z,16
2023-01-10T22:45:17.366Z,19
2023-01-10T22:50:17.359Z,18
2023-01-10T22:55:17.334Z,14
2023-01-10T23:00:17.362Z,14
2023-01-10T23:05:17.478Z,18
2023-01-10T23:10:29.290Z,17
2023-01-10T23:15:17.383Z,19
2023-01-10T23:20:15.385Z,19
2023-01-10T23:25:15.412Z,15
2023-01-10T23:30:15.427Z,20
2023-01-10T23:35:15.431Z,17
2023-01-10T23:40:15.479Z,18
2023-01-10T23:45:15.408Z,17
2023-01-10T23:50:15.491Z,17
2023-01-10T23:55:15.404Z,17
